sensor_id;sensor_type;location;lat;lon;timestamp;P1;durP1;ratioP1;P2;durP2;ratioP2
70806;SDS011;58882;52.170;5.386;2023-01-26T00:02:30;58.95;;;23.23;;
70806;SDS011;58882;52.170;5.386;2023-01-26T00:05:16;56.17;;;22.70;;
70806;SDS011;58882;52.170;5.386;2023-01-26T00:07:56;57.80;;;22.05;;
70806;SDS011;58882;52.170;5.386;2023-01-26T00:10:43;55.63;;;22.83;;
70806;SDS011;58882;52.170;5.386;2023-01-26T00:13:28;54.72;;;22.30;;
70806;SDS011;58882;52.170;5.386;2023-01-26T00:16:15;56.80;;;21.48;;
70806;SDS011;58882;52.170;5.386;2023-01-26T00:18:55;58.75;;;22.73;;
70806;SDS011;58882;52.170;5.386;2023-01-26T00:21:42;56.65;;;22.75;;
70806;SDS011;58882;52.170;5.386;2023-01-26T00:24:22;55.22;;;21.58;;
70806;SDS011;58882;52.170;5.386;2023-01-26T00:27:09;55.08;;;21.98;;
70806;SDS011;58882;52.170;5.386;2023-01-26T00:29:50;57.13;;;22.38;;
70806;SDS011;58882;52.170;5.386;2023-01-26T00:32:43;55.65;;;22.70;;
70806;SDS011;58882;52.170;5.386;2023-01-26T00:35:16;52.65;;;21.98;;
70806;SDS011;58882;52.170;5.386;2023-01-26T00:38:11;51.97;;;20.55;;
70806;SDS011;58882;52.170;5.386;2023-01-26T00:40:51;50.70;;;21.77;;
70806;SDS011;58882;52.170;5.386;2023-01-26T00:43:38;55.55;;;21.63;;
70806;SDS011;58882;52.170;5.386;2023-01-26T00:46:25;52.60;;;21.25;;
70806;SDS011;58882;52.170;5.386;2023-01-26T00:49:19;53.28;;;20.98;;
70806;SDS011;58882;52.170;5.386;2023-01-26T00:52:00;50.55;;;20.88;;
70806;SDS011;58882;52.170;5.386;2023-01-26T00:54:47;52.67;;;21.02;;
70806;SDS011;58882;52.170;5.386;2023-01-26T00:57:27;53.28;;;21.15;;
70806;SDS011;58882;52.170;5.386;2023-01-26T01:00:21;48.35;;;20.30;;
70806;SDS011;58882;52.170;5.386;2023-01-26T01:03:03;55.17;;;21.45;;
70806;SDS011;58882;52.170;5.386;2023-01-26T01:05:52;54.03;;;21.55;;
70806;SDS011;58882;52.170;5.386;2023-01-26T01:08:32;50.42;;;20.48;;
70806;SDS011;58882;52.170;5.386;2023-01-26T01:11:19;51.88;;;20.55;;
70806;SDS011;58882;52.170;5.386;2023-01-26T01:13:52;48.38;;;19.85;;
70806;SDS011;58882;52.170;5.386;2023-01-26T01:16:46;47.08;;;19.95;;
70806;SDS011;58882;52.170;5.386;2023-01-26T01:19:26;46.22;;;19.38;;
70806;SDS011;58882;52.170;5.386;2023-01-26T01:22:13;45.97;;;18.83;;
70806;SDS011;58882;52.170;5.386;2023-01-26T01:24:53;44.78;;;18.42;;
70806;SDS011;58882;52.170;5.386;2023-01-26T01:27:40;44.33;;;18.98;;
70806;SDS011;58882;52.170;5.386;2023-01-26T01:30:20;44.53;;;17.38;;
70806;SDS011;58882;52.170;5.386;2023-01-26T01:33:07;44.13;;;18.27;;
70806;SDS011;58882;52.170;5.386;2023-01-26T01:35:57;44.50;;;17.92;;
70806;SDS011;58882;52.170;5.386;2023-01-26T01:38:46;43.75;;;18.15;;
70806;SDS011;58882;52.170;5.386;2023-01-26T01:41:27;44.03;;;18.00;;
70806;SDS011;58882;52.170;5.386;2023-01-26T01:44:16;43.58;;;17.77;;
70806;SDS011;58882;52.170;5.386;2023-01-26T01:47:21;42.45;;;16.55;;
70806;SDS011;58882;52.170;5.386;2023-01-26T01:50:17;41.10;;;17.00;;
70806;SDS011;58882;52.170;5.386;2023-01-26T01:52:52;38.63;;;16.10;;
70806;SDS011;58882;52.170;5.386;2023-01-26T01:55:47;39.80;;;16.85;;
70806;SDS011;58882;52.170;5.386;2023-01-26T01:58:21;39.28;;;15.65;;
70806;SDS011;58882;52.170;5.386;2023-01-26T02:01:15;39.90;;;16.90;;
70806;SDS011;58882;52.170;5.386;2023-01-26T02:03:56;41.53;;;16.42;;
70806;SDS011;58882;52.170;5.386;2023-01-26T02:06:55;38.97;;;16.15;;
70806;SDS011;58882;52.170;5.386;2023-01-26T02:09:37;38.80;;;16.23;;
70806;SDS011;58882;52.170;5.386;2023-01-26T02:12:46;37.17;;;16.23;;
70806;SDS011;58882;52.170;5.386;2023-01-26T02:15:22;40.53;;;15.82;;
70806;SDS011;58882;52.170;5.386;2023-01-26T02:18:16;36.83;;;15.43;;
70806;SDS011;58882;52.170;5.386;2023-01-26T02:20:51;36.47;;;15.82;;
70806;SDS011;58882;52.170;5.386;2023-01-26T02:26:48;39.30;;;16.17;;
70806;SDS011;58882;52.170;5.386;2023-01-26T02:32:09;39.80;;;16.30;;
70806;SDS011;58882;52.170;5.386;2023-01-26T02:35:03;34.55;;;14.88;;
70806;SDS011;58882;52.170;5.386;2023-01-26T02:37:38;37.90;;;15.60;;
70806;SDS011;58882;52.170;5.386;2023-01-26T02:40:52;40.75;;;15.73;;
70806;SDS011;58882;52.170;5.386;2023-01-26T02:43:33;37.90;;;15.25;;
70806;SDS011;58882;52.170;5.386;2023-01-26T02:46:28;33.75;;;15.10;;
70806;SDS011;58882;52.170;5.386;2023-01-26T02:49:22;39.53;;;16.25;;
70806;SDS011;58882;52.170;5.386;2023-01-26T02:52:23;37.60;;;15.80;;
70806;SDS011;58882;52.170;5.386;2023-01-26T02:55:17;36.40;;;15.20;;
70806;SDS011;58882;52.170;5.386;2023-01-26T02:58:06;39.50;;;15.73;;
70806;SDS011;58882;52.170;5.386;2023-01-26T03:03:45;37.78;;;15.52;;
70806;SDS011;58882;52.170;5.386;2023-01-26T03:06:32;37.30;;;16.08;;
70806;SDS011;58882;52.170;5.386;2023-01-26T03:09:05;37.33;;;15.90;;
70806;SDS011;58882;52.170;5.386;2023-01-26T03:11:59;36.30;;;15.15;;
70806;SDS011;58882;52.170;5.386;2023-01-26T03:14:39;37.13;;;15.25;;
70806;SDS011;58882;52.170;5.386;2023-01-26T03:17:46;37.83;;;16.13;;
70806;SDS011;58882;52.170;5.386;2023-01-26T03:20:28;39.40;;;15.85;;
70806;SDS011;58882;52.170;5.386;2023-01-26T03:23:39;39.70;;;16.40;;
70806;SDS011;58882;52.170;5.386;2023-01-26T03:26:32;39.55;;;15.52;;
70806;SDS011;58882;52.170;5.386;2023-01-26T03:29:46;37.80;;;15.57;;
70806;SDS011;58882;52.170;5.386;2023-01-26T03:32:27;36.13;;;15.00;;
70806;SDS011;58882;52.170;5.386;2023-01-26T03:35:21;37.55;;;14.70;;
70806;SDS011;58882;52.170;5.386;2023-01-26T03:38:01;38.67;;;15.57;;
70806;SDS011;58882;52.170;5.386;2023-01-26T03:40:57;36.15;;;14.65;;
70806;SDS011;58882;52.170;5.386;2023-01-26T03:43:57;36.20;;;15.07;;
70806;SDS011;58882;52.170;5.386;2023-01-26T03:47:03;32.22;;;13.98;;
70806;SDS011;58882;52.170;5.386;2023-01-26T03:50:03;32.63;;;14.10;;
70806;SDS011;58882;52.170;5.386;2023-01-26T03:53:16;32.38;;;14.05;;
70806;SDS011;58882;52.170;5.386;2023-01-26T03:56:18;33.97;;;14.10;;
70806;SDS011;58882;52.170;5.386;2023-01-26T03:59:17;33.65;;;13.98;;
70806;SDS011;58882;52.170;5.386;2023-01-26T04:02:15;31.63;;;13.15;;
70806;SDS011;58882;52.170;5.386;2023-01-26T04:05:27;31.77;;;12.80;;
70806;SDS011;58882;52.170;5.386;2023-01-26T04:08:19;31.20;;;14.05;;
70806;SDS011;58882;52.170;5.386;2023-01-26T04:11:14;29.42;;;13.10;;
70806;SDS011;58882;52.170;5.386;2023-01-26T04:13:47;30.20;;;13.75;;
70806;SDS011;58882;52.170;5.386;2023-01-26T04:17:00;30.73;;;13.15;;
70806;SDS011;58882;52.170;5.386;2023-01-26T04:19:59;31.83;;;13.25;;
70806;SDS011;58882;52.170;5.386;2023-01-26T04:23:16;30.85;;;12.82;;
70806;SDS011;58882;52.170;5.386;2023-01-26T04:25:50;27.30;;;12.30;;
70806;SDS011;58882;52.170;5.386;2023-01-26T04:31:31;27.65;;;12.48;;
70806;SDS011;58882;52.170;5.386;2023-01-26T04:34:15;28.55;;;12.85;;
70806;SDS011;58882;52.170;5.386;2023-01-26T04:37:01;26.10;;;11.80;;
70806;SDS011;58882;52.170;5.386;2023-01-26T04:39:42;26.75;;;11.52;;
70806;SDS011;58882;52.170;5.386;2023-01-26T04:42:37;29.27;;;12.82;;
70806;SDS011;58882;52.170;5.386;2023-01-26T04:45:10;29.10;;;13.52;;
70806;SDS011;58882;52.170;5.386;2023-01-26T04:48:04;26.90;;;11.90;;
70806;SDS011;58882;52.170;5.386;2023-01-26T04:50:44;29.25;;;13.30;;
70806;SDS011;58882;52.170;5.386;2023-01-26T04:53:39;28.33;;;12.20;;
70806;SDS011;58882;52.170;5.386;2023-01-26T04:56:22;31.48;;;13.45;;
70806;SDS011;58882;52.170;5.386;2023-01-26T04:59:10;31.85;;;13.05;;
70806;SDS011;58882;52.170;5.386;2023-01-26T05:01:55;28.10;;;12.48;;
70806;SDS011;58882;52.170;5.386;2023-01-26T05:04:49;28.60;;;12.55;;
70806;SDS011;58882;52.170;5.386;2023-01-26T05:07:30;30.23;;;12.80;;
70806;SDS011;58882;52.170;5.386;2023-01-26T05:10:18;29.48;;;12.88;;
70806;SDS011;58882;52.170;5.386;2023-01-26T05:13:21;28.05;;;12.20;;
70806;SDS011;58882;52.170;5.386;2023-01-26T05:16:30;30.15;;;12.55;;
70806;SDS011;58882;52.170;5.386;2023-01-26T05:19:20;30.33;;;13.15;;
70806;SDS011;58882;52.170;5.386;2023-01-26T05:22:22;30.15;;;12.82;;
70806;SDS011;58882;52.170;5.386;2023-01-26T05:25:18;29.27;;;12.68;;
70806;SDS011;58882;52.170;5.386;2023-01-26T05:28:15;27.13;;;12.07;;
70806;SDS011;58882;52.170;5.386;2023-01-26T05:30:55;27.73;;;12.35;;
70806;SDS011;58882;52.170;5.386;2023-01-26T05:33:42;31.33;;;12.45;;
70806;SDS011;58882;52.170;5.386;2023-01-26T05:36:23;31.58;;;13.50;;
70806;SDS011;58882;52.170;5.386;2023-01-26T05:39:09;29.90;;;12.90;;
70806;SDS011;58882;52.170;5.386;2023-01-26T05:41:49;29.80;;;12.45;;
70806;SDS011;58882;52.170;5.386;2023-01-26T05:47:50;27.20;;;11.98;;
70806;SDS011;58882;52.170;5.386;2023-01-26T05:50:31;32.60;;;12.43;;
70806;SDS011;58882;52.170;5.386;2023-01-26T05:56:17;28.38;;;11.82;;
70806;SDS011;58882;52.170;5.386;2023-01-26T05:59:07;27.95;;;12.02;;
70806;SDS011;58882;52.170;5.386;2023-01-26T06:01:43;28.10;;;12.32;;
70806;SDS011;58882;52.170;5.386;2023-01-26T06:04:37;31.20;;;12.68;;
70806;SDS011;58882;52.170;5.386;2023-01-26T06:07:11;33.85;;;12.30;;
70806;SDS011;58882;52.170;5.386;2023-01-26T06:10:27;26.90;;;12.23;;
70806;SDS011;58882;52.170;5.386;2023-01-26T06:13:21;29.00;;;12.57;;
70806;SDS011;58882;52.170;5.386;2023-01-26T06:16:25;27.92;;;12.13;;
70806;SDS011;58882;52.170;5.386;2023-01-26T06:18:59;31.08;;;13.00;;
70806;SDS011;58882;52.170;5.386;2023-01-26T06:21:57;32.30;;;12.20;;
70806;SDS011;58882;52.170;5.386;2023-01-26T06:24:31;30.98;;;12.68;;
70806;SDS011;58882;52.170;5.386;2023-01-26T06:27:25;29.25;;;12.30;;
70806;SDS011;58882;52.170;5.386;2023-01-26T06:30:01;31.25;;;12.13;;
70806;SDS011;58882;52.170;5.386;2023-01-26T06:35:36;27.38;;;11.73;;
70806;SDS011;58882;52.170;5.386;2023-01-26T06:38:30;27.08;;;11.25;;
70806;SDS011;58882;52.170;5.386;2023-01-26T06:41:10;29.75;;;12.65;;
70806;SDS011;58882;52.170;5.386;2023-01-26T06:44:04;27.58;;;12.27;;
70806;SDS011;58882;52.170;5.386;2023-01-26T06:46:38;30.80;;;12.23;;
70806;SDS011;58882;52.170;5.386;2023-01-26T06:49:33;29.38;;;12.43;;
70806;SDS011;58882;52.170;5.386;2023-01-26T06:52:51;28.23;;;12.18;;
70806;SDS011;58882;52.170;5.386;2023-01-26T06:56:02;30.00;;;12.52;;
70806;SDS011;58882;52.170;5.386;2023-01-26T06:58:55;27.88;;;12.35;;
70806;SDS011;58882;52.170;5.386;2023-01-26T07:02:17;29.52;;;12.20;;
70806;SDS011;58882;52.170;5.386;2023-01-26T07:04:58;24.65;;;10.93;;
70806;SDS011;58882;52.170;5.386;2023-01-26T07:07:45;33.05;;;11.30;;
70806;SDS011;58882;52.170;5.386;2023-01-26T07:10:25;28.23;;;11.68;;
70806;SDS011;58882;52.170;5.386;2023-01-26T07:13:19;21.42;;;9.63;;
70806;SDS011;58882;52.170;5.386;2023-01-26T07:15:59;26.95;;;11.98;;
70806;SDS011;58882;52.170;5.386;2023-01-26T07:18:56;24.10;;;10.80;;
70806;SDS011;58882;52.170;5.386;2023-01-26T07:21:29;26.08;;;11.18;;
70806;SDS011;58882;52.170;5.386;2023-01-26T07:24:24;29.52;;;11.20;;
70806;SDS011;58882;52.170;5.386;2023-01-26T07:26:57;26.52;;;11.13;;
70806;SDS011;58882;52.170;5.386;2023-01-26T07:29:51;30.30;;;12.45;;
70806;SDS011;58882;52.170;5.386;2023-01-26T07:32:31;25.83;;;11.50;;
70806;SDS011;58882;52.170;5.386;2023-01-26T07:35:18;29.08;;;12.50;;
70806;SDS011;58882;52.170;5.386;2023-01-26T07:37:51;23.85;;;11.30;;
70806;SDS011;58882;52.170;5.386;2023-01-26T07:40:45;28.55;;;11.63;;
70806;SDS011;58882;52.170;5.386;2023-01-26T07:43:25;28.38;;;11.73;;
70806;SDS011;58882;52.170;5.386;2023-01-26T07:46:14;26.92;;;11.32;;
70806;SDS011;58882;52.170;5.386;2023-01-26T07:49:08;28.20;;;11.55;;
70806;SDS011;58882;52.170;5.386;2023-01-26T07:51:50;25.10;;;11.45;;
70806;SDS011;58882;52.170;5.386;2023-01-26T07:54:37;26.00;;;11.20;;
70806;SDS011;58882;52.170;5.386;2023-01-26T07:57:18;25.92;;;10.90;;
70806;SDS011;58882;52.170;5.386;2023-01-26T08:00:12;23.63;;;10.82;;
70806;SDS011;58882;52.170;5.386;2023-01-26T08:02:53;23.63;;;10.85;;
70806;SDS011;58882;52.170;5.386;2023-01-26T08:05:40;23.90;;;10.52;;
70806;SDS011;58882;52.170;5.386;2023-01-26T08:08:21;25.00;;;10.88;;
70806;SDS011;58882;52.170;5.386;2023-01-26T08:11:09;24.88;;;10.73;;
70806;SDS011;58882;52.170;5.386;2023-01-26T08:13:49;25.13;;;11.07;;
70806;SDS011;58882;52.170;5.386;2023-01-26T08:16:29;24.10;;;10.02;;
70806;SDS011;58882;52.170;5.386;2023-01-26T08:19:23;24.98;;;10.55;;
70806;SDS011;58882;52.170;5.386;2023-01-26T08:21:56;22.88;;;10.00;;
70806;SDS011;58882;52.170;5.386;2023-01-26T08:24:50;25.60;;;10.43;;
70806;SDS011;58882;52.170;5.386;2023-01-26T08:27:30;24.55;;;10.23;;
70806;SDS011;58882;52.170;5.386;2023-01-26T08:30:17;22.20;;;10.25;;
70806;SDS011;58882;52.170;5.386;2023-01-26T08:32:50;19.77;;;9.32;;
70806;SDS011;58882;52.170;5.386;2023-01-26T08:35:44;23.52;;;9.32;;
70806;SDS011;58882;52.170;5.386;2023-01-26T08:38:18;24.25;;;9.60;;
70806;SDS011;58882;52.170;5.386;2023-01-26T08:41:11;23.23;;;9.73;;
70806;SDS011;58882;52.170;5.386;2023-01-26T08:43:44;23.38;;;9.60;;
70806;SDS011;58882;52.170;5.386;2023-01-26T08:46:38;23.30;;;9.70;;
70806;SDS011;58882;52.170;5.386;2023-01-26T08:49:32;22.63;;;9.18;;
70806;SDS011;58882;52.170;5.386;2023-01-26T08:52:12;21.77;;;9.40;;
70806;SDS011;58882;52.170;5.386;2023-01-26T08:55:06;23.30;;;9.75;;
70806;SDS011;58882;52.170;5.386;2023-01-26T08:57:39;22.65;;;9.05;;
70806;SDS011;58882;52.170;5.386;2023-01-26T09:00:33;21.10;;;9.18;;
70806;SDS011;58882;52.170;5.386;2023-01-26T09:03:07;22.60;;;9.10;;
70806;SDS011;58882;52.170;5.386;2023-01-26T09:06:01;24.23;;;9.45;;
70806;SDS011;58882;52.170;5.386;2023-01-26T09:08:43;19.55;;;8.23;;
70806;SDS011;58882;52.170;5.386;2023-01-26T09:11:30;22.33;;;8.07;;
70806;SDS011;58882;52.170;5.386;2023-01-26T09:14:10;23.85;;;8.55;;
70806;SDS011;58882;52.170;5.386;2023-01-26T09:16:57;20.05;;;7.85;;
70806;SDS011;58882;52.170;5.386;2023-01-26T09:19:37;23.75;;;8.43;;
70806;SDS011;58882;52.170;5.386;2023-01-26T09:22:31;18.95;;;7.47;;
70806;SDS011;58882;52.170;5.386;2023-01-26T09:25:11;18.50;;;7.45;;
70806;SDS011;58882;52.170;5.386;2023-01-26T09:28:05;19.40;;;7.25;;
70806;SDS011;58882;52.170;5.386;2023-01-26T09:30:45;19.55;;;6.55;;
70806;SDS011;58882;52.170;5.386;2023-01-26T09:33:39;17.60;;;6.72;;
70806;SDS011;58882;52.170;5.386;2023-01-26T09:36:19;18.13;;;6.93;;
70806;SDS011;58882;52.170;5.386;2023-01-26T09:39:06;20.75;;;6.60;;
70806;SDS011;58882;52.170;5.386;2023-01-26T09:50:53;18.05;;;6.38;;
70806;SDS011;58882;52.170;5.386;2023-01-26T09:56:39;14.13;;;4.75;;
70806;SDS011;58882;52.170;5.386;2023-01-26T09:59:27;16.77;;;4.88;;
70806;SDS011;58882;52.170;5.386;2023-01-26T10:05:06;15.60;;;5.13;;
70806;SDS011;58882;52.170;5.386;2023-01-26T10:07:51;16.42;;;4.60;;
70806;SDS011;58882;52.170;5.386;2023-01-26T10:10:49;14.18;;;4.30;;
70806;SDS011;58882;52.170;5.386;2023-01-26T10:13:32;13.70;;;4.50;;
70806;SDS011;58882;52.170;5.386;2023-01-26T10:16:27;12.30;;;4.40;;
70806;SDS011;58882;52.170;5.386;2023-01-26T10:19:05;14.50;;;4.45;;
70806;SDS011;58882;52.170;5.386;2023-01-26T10:22:18;12.77;;;4.07;;
70806;SDS011;58882;52.170;5.386;2023-01-26T10:25:17;11.45;;;3.80;;
70806;SDS011;58882;52.170;5.386;2023-01-26T10:31:15;12.68;;;3.72;;
70806;SDS011;58882;52.170;5.386;2023-01-26T10:37:04;11.68;;;3.40;;
70806;SDS011;58882;52.170;5.386;2023-01-26T10:40:05;9.50;;;3.22;;
70806;SDS011;58882;52.170;5.386;2023-01-26T10:42:53;12.02;;;3.15;;
70806;SDS011;58882;52.170;5.386;2023-01-26T10:45:46;10.75;;;3.03;;
70806;SDS011;58882;52.170;5.386;2023-01-26T10:48:21;9.88;;;2.75;;
70806;SDS011;58882;52.170;5.386;2023-01-26T10:51:20;11.02;;;2.72;;
70806;SDS011;58882;52.170;5.386;2023-01-26T10:57:16;9.60;;;2.88;;
70806;SDS011;58882;52.170;5.386;2023-01-26T10:59:58;11.60;;;3.10;;
70806;SDS011;58882;52.170;5.386;2023-01-26T11:02:53;11.68;;;2.92;;
70806;SDS011;58882;52.170;5.386;2023-01-26T11:05:37;11.85;;;2.40;;
70806;SDS011;58882;52.170;5.386;2023-01-26T11:08:34;10.85;;;2.78;;
70806;SDS011;58882;52.170;5.386;2023-01-26T11:11:25;12.25;;;2.65;;
70806;SDS011;58882;52.170;5.386;2023-01-26T11:14:19;12.65;;;2.60;;
70806;SDS011;58882;52.170;5.386;2023-01-26T11:22:57;12.55;;;2.70;;
70806;SDS011;58882;52.170;5.386;2023-01-26T11:26:17;9.15;;;2.63;;
70806;SDS011;58882;52.170;5.386;2023-01-26T11:29:12;10.38;;;2.80;;
70806;SDS011;58882;52.170;5.386;2023-01-26T11:35:22;30.08;;;2.97;;
70806;SDS011;58882;52.170;5.386;2023-01-26T11:38:25;32.08;;;2.95;;
70806;SDS011;58882;52.170;5.386;2023-01-26T11:44:17;18.38;;;2.70;;
70806;SDS011;58882;52.170;5.386;2023-01-26T11:47:22;16.23;;;2.80;;
70806;SDS011;58882;52.170;5.386;2023-01-26T11:50:34;17.48;;;2.15;;
70806;SDS011;58882;52.170;5.386;2023-01-26T11:53:22;13.80;;;2.75;;
70806;SDS011;58882;52.170;5.386;2023-01-26T11:59:51;16.85;;;2.25;;
70806;SDS011;58882;52.170;5.386;2023-01-26T12:03:17;10.02;;;1.77;;
70806;SDS011;58882;52.170;5.386;2023-01-26T12:06:00;14.98;;;2.58;;
70806;SDS011;58882;52.170;5.386;2023-01-26T12:09:01;12.20;;;2.17;;
70806;SDS011;58882;52.170;5.386;2023-01-26T12:12:23;14.55;;;2.95;;
70806;SDS011;58882;52.170;5.386;2023-01-26T12:15:15;8.80;;;1.88;;
70806;SDS011;58882;52.170;5.386;2023-01-26T12:18:21;10.15;;;1.88;;
70806;SDS011;58882;52.170;5.386;2023-01-26T12:21:38;8.57;;;1.67;;
70806;SDS011;58882;52.170;5.386;2023-01-26T12:24:34;12.00;;;1.75;;
70806;SDS011;58882;52.170;5.386;2023-01-26T12:27:46;7.57;;;1.70;;
70806;SDS011;58882;52.170;5.386;2023-01-26T12:31:02;8.70;;;1.73;;
70806;SDS011;58882;52.170;5.386;2023-01-26T12:34:24;8.65;;;1.48;;
70806;SDS011;58882;52.170;5.386;2023-01-26T12:46:10;11.90;;;1.70;;
70806;SDS011;58882;52.170;5.386;2023-01-26T12:48:47;9.32;;;1.70;;
70806;SDS011;58882;52.170;5.386;2023-01-26T12:51:49;10.35;;;1.60;;
70806;SDS011;58882;52.170;5.386;2023-01-26T12:54:35;7.75;;;1.80;;
70806;SDS011;58882;52.170;5.386;2023-01-26T12:57:39;7.60;;;1.55;;
70806;SDS011;58882;52.170;5.386;2023-01-26T13:00:48;7.78;;;1.45;;
70806;SDS011;58882;52.170;5.386;2023-01-26T13:04:07;9.20;;;1.80;;
70806;SDS011;58882;52.170;5.386;2023-01-26T13:07:03;9.20;;;1.60;;
70806;SDS011;58882;52.170;5.386;2023-01-26T13:15:39;11.25;;;1.95;;
70806;SDS011;58882;52.170;5.386;2023-01-26T13:18:20;7.15;;;1.55;;
70806;SDS011;58882;52.170;5.386;2023-01-26T13:21:40;8.48;;;1.55;;
70806;SDS011;58882;52.170;5.386;2023-01-26T13:33:23;9.13;;;1.40;;
70806;SDS011;58882;52.170;5.386;2023-01-26T13:35:56;8.68;;;1.45;;
70806;SDS011;58882;52.170;5.386;2023-01-26T13:38:57;9.65;;;1.60;;
70806;SDS011;58882;52.170;5.386;2023-01-26T13:41:41;9.05;;;1.67;;
70806;SDS011;58882;52.170;5.386;2023-01-26T13:44:39;7.70;;;1.58;;
70806;SDS011;58882;52.170;5.386;2023-01-26T13:50:33;7.70;;;1.45;;
70806;SDS011;58882;52.170;5.386;2023-01-26T13:53:26;8.27;;;1.30;;
70806;SDS011;58882;52.170;5.386;2023-01-26T13:59:12;7.82;;;1.52;;
70806;SDS011;58882;52.170;5.386;2023-01-26T14:02:10;6.85;;;1.50;;
70806;SDS011;58882;52.170;5.386;2023-01-26T14:05:01;8.25;;;1.38;;
70806;SDS011;58882;52.170;5.386;2023-01-26T14:07:48;8.75;;;1.33;;
70806;SDS011;58882;52.170;5.386;2023-01-26T14:10:28;7.70;;;1.50;;
70806;SDS011;58882;52.170;5.386;2023-01-26T14:13:21;7.75;;;1.40;;
70806;SDS011;58882;52.170;5.386;2023-01-26T14:16:26;8.00;;;1.27;;
70806;SDS011;58882;52.170;5.386;2023-01-26T14:19:22;10.88;;;1.60;;
70806;SDS011;58882;52.170;5.386;2023-01-26T14:22:09;6.60;;;1.08;;
70806;SDS011;58882;52.170;5.386;2023-01-26T14:25:00;5.63;;;1.20;;
70806;SDS011;58882;52.170;5.386;2023-01-26T14:27:40;4.65;;;1.20;;
70806;SDS011;58882;52.170;5.386;2023-01-26T14:30:32;5.38;;;0.93;;
70806;SDS011;58882;52.170;5.386;2023-01-26T14:33:13;6.35;;;1.10;;
70806;SDS011;58882;52.170;5.386;2023-01-26T14:36:02;6.70;;;1.20;;
70806;SDS011;58882;52.170;5.386;2023-01-26T14:38:44;8.25;;;1.60;;
70806;SDS011;58882;52.170;5.386;2023-01-26T14:41:39;8.27;;;1.33;;
70806;SDS011;58882;52.170;5.386;2023-01-26T14:47:17;7.53;;;1.38;;
70806;SDS011;58882;52.170;5.386;2023-01-26T14:50:25;8.45;;;1.38;;
70806;SDS011;58882;52.170;5.386;2023-01-26T14:53:20;5.10;;;1.10;;
70806;SDS011;58882;52.170;5.386;2023-01-26T14:55:54;8.40;;;1.30;;
70806;SDS011;58882;52.170;5.386;2023-01-26T14:58:49;6.18;;;1.27;;
70806;SDS011;58882;52.170;5.386;2023-01-26T15:01:25;8.27;;;1.30;;
70806;SDS011;58882;52.170;5.386;2023-01-26T15:07:21;11.18;;;1.40;;
70806;SDS011;58882;52.170;5.386;2023-01-26T15:18:56;5.70;;;1.10;;
70806;SDS011;58882;52.170;5.386;2023-01-26T15:21:57;6.82;;;1.13;;
70806;SDS011;58882;52.170;5.386;2023-01-26T15:27:29;5.93;;;0.98;;
70806;SDS011;58882;52.170;5.386;2023-01-26T15:30:17;6.40;;;1.10;;
70806;SDS011;58882;52.170;5.386;2023-01-26T15:39:19;6.47;;;1.20;;
70806;SDS011;58882;52.170;5.386;2023-01-26T15:45:11;7.43;;;1.10;;
70806;SDS011;58882;52.170;5.386;2023-01-26T15:47:59;8.60;;;1.08;;
70806;SDS011;58882;52.170;5.386;2023-01-26T15:53:33;8.32;;;1.08;;
70806;SDS011;58882;52.170;5.386;2023-01-26T15:56:20;7.00;;;1.40;;
70806;SDS011;58882;52.170;5.386;2023-01-26T16:01:55;5.20;;;1.10;;
70806;SDS011;58882;52.170;5.386;2023-01-26T16:04:35;7.25;;;0.95;;
70806;SDS011;58882;52.170;5.386;2023-01-26T16:07:23;4.32;;;1.17;;
70806;SDS011;58882;52.170;5.386;2023-01-26T16:12:56;9.00;;;1.00;;
70806;SDS011;58882;52.170;5.386;2023-01-26T16:15:33;6.05;;;1.20;;
70806;SDS011;58882;52.170;5.386;2023-01-26T16:18:30;9.75;;;1.10;;
70806;SDS011;58882;52.170;5.386;2023-01-26T16:24:11;5.13;;;0.95;;
70806;SDS011;58882;52.170;5.386;2023-01-26T16:26:44;6.28;;;1.00;;
70806;SDS011;58882;52.170;5.386;2023-01-26T16:32:28;5.18;;;0.90;;
70806;SDS011;58882;52.170;5.386;2023-01-26T16:35:15;4.40;;;1.00;;
70806;SDS011;58882;52.170;5.386;2023-01-26T16:37:57;5.85;;;1.10;;
70806;SDS011;58882;52.170;5.386;2023-01-26T16:40:52;5.47;;;1.20;;
70806;SDS011;58882;52.170;5.386;2023-01-26T16:46:19;4.85;;;1.10;;
70806;SDS011;58882;52.170;5.386;2023-01-26T16:48:54;3.22;;;0.70;;
70806;SDS011;58882;52.170;5.386;2023-01-26T16:51:48;3.60;;;0.80;;
70806;SDS011;58882;52.170;5.386;2023-01-26T16:57:15;4.20;;;1.00;;
70806;SDS011;58882;52.170;5.386;2023-01-26T17:02:43;6.13;;;0.90;;
70806;SDS011;58882;52.170;5.386;2023-01-26T17:05:26;6.95;;;1.00;;
70806;SDS011;58882;52.170;5.386;2023-01-26T17:08:13;5.13;;;1.02;;
70806;SDS011;58882;52.170;5.386;2023-01-26T17:13:47;5.25;;;1.33;;
70806;SDS011;58882;52.170;5.386;2023-01-26T17:16:22;4.80;;;1.10;;
70806;SDS011;58882;52.170;5.386;2023-01-26T17:19:18;6.07;;;1.10;;
70806;SDS011;58882;52.170;5.386;2023-01-26T17:21:58;6.80;;;1.05;;
70806;SDS011;58882;52.170;5.386;2023-01-26T17:24:45;6.93;;;1.15;;
70806;SDS011;58882;52.170;5.386;2023-01-26T17:30:12;7.57;;;1.20;;
70806;SDS011;58882;52.170;5.386;2023-01-26T17:35:47;7.05;;;1.10;;
70806;SDS011;58882;52.170;5.386;2023-01-26T17:41:08;5.65;;;1.10;;
70806;SDS011;58882;52.170;5.386;2023-01-26T17:43:54;6.78;;;1.10;;
70806;SDS011;58882;52.170;5.386;2023-01-26T17:46:27;5.72;;;1.63;;
70806;SDS011;58882;52.170;5.386;2023-01-26T17:49:29;6.97;;;1.40;;
70806;SDS011;58882;52.170;5.386;2023-01-26T17:52:23;9.07;;;1.60;;
70806;SDS011;58882;52.170;5.386;2023-01-26T17:55:06;9.48;;;1.90;;
70806;SDS011;58882;52.170;5.386;2023-01-26T17:57:54;12.57;;;1.55;;
70806;SDS011;58882;52.170;5.386;2023-01-26T18:03:22;9.02;;;1.45;;
70806;SDS011;58882;52.170;5.386;2023-01-26T18:06:04;9.35;;;1.80;;
70806;SDS011;58882;52.170;5.386;2023-01-26T18:08:51;8.75;;;1.75;;
70806;SDS011;58882;52.170;5.386;2023-01-26T18:11:32;11.57;;;2.08;;
70806;SDS011;58882;52.170;5.386;2023-01-26T18:14:19;7.95;;;2.03;;
70806;SDS011;58882;52.170;5.386;2023-01-26T18:16:59;8.93;;;1.80;;
70806;SDS011;58882;52.170;5.386;2023-01-26T18:19:53;6.38;;;1.60;;
70806;SDS011;58882;52.170;5.386;2023-01-26T18:25:20;11.60;;;1.90;;
70806;SDS011;58882;52.170;5.386;2023-01-26T18:27:53;10.70;;;1.52;;
70806;SDS011;58882;52.170;5.386;2023-01-26T18:30:47;8.32;;;1.52;;
70806;SDS011;58882;52.170;5.386;2023-01-26T18:33:20;9.40;;;2.60;;
70806;SDS011;58882;52.170;5.386;2023-01-26T18:36:15;9.10;;;1.60;;
70806;SDS011;58882;52.170;5.386;2023-01-26T18:38:59;6.20;;;1.63;;
70806;SDS011;58882;52.170;5.386;2023-01-26T18:41:56;9.48;;;1.48;;
70806;SDS011;58882;52.170;5.386;2023-01-26T18:44:29;7.90;;;1.52;;
70806;SDS011;58882;52.170;5.386;2023-01-26T18:50:17;8.68;;;1.67;;
70806;SDS011;58882;52.170;5.386;2023-01-26T18:53:11;6.07;;;1.45;;
70806;SDS011;58882;52.170;5.386;2023-01-26T18:55:44;8.20;;;1.42;;
70806;SDS011;58882;52.170;5.386;2023-01-26T18:58:40;9.63;;;1.65;;
70806;SDS011;58882;52.170;5.386;2023-01-26T19:01:14;8.93;;;1.48;;
70806;SDS011;58882;52.170;5.386;2023-01-26T19:04:08;6.07;;;1.40;;
70806;SDS011;58882;52.170;5.386;2023-01-26T19:06:49;9.98;;;1.70;;
70806;SDS011;58882;52.170;5.386;2023-01-26T19:09:37;8.70;;;1.67;;
70806;SDS011;58882;52.170;5.386;2023-01-26T19:12:10;8.40;;;1.60;;
70806;SDS011;58882;52.170;5.386;2023-01-26T19:17:38;10.18;;;1.73;;
70806;SDS011;58882;52.170;5.386;2023-01-26T19:20:32;6.22;;;1.35;;
70806;SDS011;58882;52.170;5.386;2023-01-26T19:23:12;10.98;;;1.67;;
70806;SDS011;58882;52.170;5.386;2023-01-26T19:25:59;7.53;;;1.30;;